sensor_id;sensor_type;location;lat;lon;timestamp;pressure;altitude;pressure_sealevel;temperature;humidity
69306;BME280;56427;51.580;4.656;2024-02-21T00:01:47;102301.44;;;9.04;100.00
69306;BME280;56427;51.580;4.656;2024-02-21T00:04:12;102291.16;;;9.01;100.00
69306;BME280;56427;51.580;4.656;2024-02-21T00:06:38;102283.44;;;8.98;100.00
69306;BME280;56427;51.580;4.656;2024-02-21T00:09:03;102269.66;;;8.96;100.00
69306;BME280;56427;51.580;4.656;2024-02-21T00:11:28;102277.56;;;8.88;100.00
69306;BME280;56427;51.580;4.656;2024-02-21T00:13:53;102264.69;;;8.86;100.00
69306;BME280;56427;51.580;4.656;2024-02-21T00:16:19;102264.69;;;8.85;100.00
69306;BME280;56427;51.580;4.656;2024-02-21T00:18:45;102257.88;;;8.81;100.00
69306;BME280;56427;51.580;4.656;2024-02-21T00:21:10;102262.28;;;8.76;100.00
69306;BME280;56427;51.580;4.656;2024-02-21T00:23:40;102267.41;;;8.77;100.00
69306;BME280;56427;51.580;4.656;2024-02-21T00:26:05;102264.13;;;8.69;100.00
69306;BME280;56427;51.580;4.656;2024-02-21T00:28:31;102249.47;;;8.67;100.00
69306;BME280;56427;51.580;4.656;2024-02-21T00:30:56;102241.72;;;8.67;100.00
69306;BME280;56427;51.580;4.656;2024-02-21T00:33:21;102249.47;;;8.68;100.00
69306;BME280;56427;51.580;4.656;2024-02-21T00:35:47;102239.13;;;8.68;100.00
69306;BME280;56427;51.580;4.656;2024-02-21T00:38:12;102234.69;;;8.75;100.00
69306;BME280;56427;51.580;4.656;2024-02-21T00:40:37;102230.41;;;8.72;100.00
69306;BME280;56427;51.580;4.656;2024-02-21T00:43:03;102227.78;;;8.75;100.00
69306;BME280;56427;51.580;4.656;2024-02-21T00:45:28;102226.94;;;8.75;100.00
69306;BME280;56427;51.580;4.656;2024-02-21T00:47:53;102229.44;;;8.78;100.00
69306;BME280;56427;51.580;4.656;2024-02-21T00:50:19;102240.59;;;8.81;100.00
69306;BME280;56427;51.580;4.656;2024-02-21T00:52:44;102229.25;;;8.88;100.00
69306;BME280;56427;51.580;4.656;2024-02-21T00:55:10;102240.38;;;8.92;100.00
69306;BME280;56427;51.580;4.656;2024-02-21T00:57:35;102220.50;;;8.96;100.00
69306;BME280;56427;51.580;4.656;2024-02-21T01:00:02;102221.34;;;8.96;100.00
69306;BME280;56427;51.580;4.656;2024-02-21T01:02:27;102229.97;;;8.97;100.00
69306;BME280;56427;51.580;4.656;2024-02-21T01:04:53;102220.47;;;8.97;100.00
69306;BME280;56427;51.580;4.656;2024-02-21T01:07:18;102218.72;;;8.99;100.00
69306;BME280;56427;51.580;4.656;2024-02-21T01:09:43;102212.66;;;8.99;100.00
69306;BME280;56427;51.580;4.656;2024-02-21T01:12:09;102203.19;;;8.98;100.00
69306;BME280;56427;51.580;4.656;2024-02-21T01:14:34;102199.78;;;8.96;100.00
69306;BME280;56427;51.580;4.656;2024-02-21T01:16:59;102193.00;;;8.90;100.00
69306;BME280;56427;51.580;4.656;2024-02-21T01:19:24;102179.28;;;8.86;100.00
69306;BME280;56427;51.580;4.656;2024-02-21T01:21:50;102173.19;;;8.89;100.00
69306;BME280;56427;51.580;4.656;2024-02-21T01:24:15;102174.16;;;8.83;100.00
69306;BME280;56427;51.580;4.656;2024-02-21T01:26:40;102179.31;;;8.83;100.00
69306;BME280;56427;51.580;4.656;2024-02-21T01:29:06;102186.19;;;8.84;100.00
69306;BME280;56427;51.580;4.656;2024-02-21T01:31:31;102199.06;;;8.89;100.00
69306;BME280;56427;51.580;4.656;2024-02-21T01:33:56;102192.16;;;8.89;100.00
69306;BME280;56427;51.580;4.656;2024-02-21T01:36:23;102196.31;;;8.97;100.00
69306;BME280;56427;51.580;4.656;2024-02-21T01:38:48;102190.25;;;8.98;100.00
69306;BME280;56427;51.580;4.656;2024-02-21T01:41:13;102181.63;;;8.97;100.00
69306;BME280;56427;51.580;4.656;2024-02-21T01:43:39;102177.34;;;8.96;100.00
69306;BME280;56427;51.580;4.656;2024-02-21T01:46:04;102183.41;;;8.95;100.00
69306;BME280;56427;51.580;4.656;2024-02-21T01:48:29;102194.66;;;8.94;100.00
69306;BME280;56427;51.580;4.656;2024-02-21T01:50:56;102182.59;;;8.93;100.00
69306;BME280;56427;51.580;4.656;2024-02-21T01:53:30;102171.41;;;8.93;100.00
69306;BME280;56427;51.580;4.656;2024-02-21T01:55:56;102168.78;;;8.94;100.00
69306;BME280;56427;51.580;4.656;2024-02-21T01:58:21;102166.19;;;8.94;100.00
69306;BME280;56427;51.580;4.656;2024-02-21T02:00:48;102154.22;;;8.88;100.00
69306;BME280;56427;51.580;4.656;2024-02-21T02:03:13;102153.25;;;8.94;100.00
69306;BME280;56427;51.580;4.656;2024-02-21T02:05:49;102158.47;;;8.91;100.00
69306;BME280;56427;51.580;4.656;2024-02-21T02:08:21;102151.53;;;8.93;100.00
69306;BME280;56427;51.580;4.656;2024-02-21T02:10:47;102149.94;;;8.86;100.00
69306;BME280;56427;51.580;4.656;2024-02-21T02:13:13;102149.00;;;8.90;100.00
69306;BME280;56427;51.580;4.656;2024-02-21T02:15:48;102153.50;;;8.82;100.00
69306;BME280;56427;51.580;4.656;2024-02-21T02:18:16;102144.88;;;8.80;100.00
69306;BME280;56427;51.580;4.656;2024-02-21T02:20:44;102152.56;;;8.84;100.00
69306;BME280;56427;51.580;4.656;2024-02-21T02:25:36;102147.47;;;8.81;100.00
69306;BME280;56427;51.580;4.656;2024-02-21T02:28:07;102153.53;;;8.80;100.00
69306;BME280;56427;51.580;4.656;2024-02-21T02:30:34;102147.44;;;8.83;100.00
69306;BME280;56427;51.580;4.656;2024-02-21T02:33:01;102138.81;;;8.82;100.00
69306;BME280;56427;51.580;4.656;2024-02-21T02:35:26;102130.97;;;8.87;100.00
69306;BME280;56427;51.580;4.656;2024-02-21T02:37:52;102132.78;;;8.82;100.00
69306;BME280;56427;51.580;4.656;2024-02-21T02:40:18;102129.22;;;8.86;100.00
69306;BME280;56427;51.580;4.656;2024-02-21T02:42:43;102125.88;;;8.82;100.00
69306;BME280;56427;51.580;4.656;2024-02-21T02:45:09;102123.31;;;8.81;100.00
69306;BME280;56427;51.580;4.656;2024-02-21T02:47:34;102124.97;;;8.83;100.00
69306;BME280;56427;51.580;4.656;2024-02-21T02:50:00;102125.66;;;8.93;100.00
69306;BME280;56427;51.580;4.656;2024-02-21T02:52:26;102124.09;;;8.84;100.00
69306;BME280;56427;51.580;4.656;2024-02-21T02:54:51;102115.50;;;8.84;100.00
69306;BME280;56427;51.580;4.656;2024-02-21T02:57:18;102108.56;;;8.84;100.00
69306;BME280;56427;51.580;4.656;2024-02-21T02:59:52;102106.81;;;8.86;100.00
69306;BME280;56427;51.580;4.656;2024-02-21T03:02:18;102104.25;;;8.86;100.00
69306;BME280;56427;51.580;4.656;2024-02-21T03:04:44;102096.56;;;8.82;100.00
69306;BME280;56427;51.580;4.656;2024-02-21T03:07:09;102084.47;;;8.82;100.00
69306;BME280;56427;51.580;4.656;2024-02-21T03:09:39;102079.25;;;8.84;100.00
69306;BME280;56427;51.580;4.656;2024-02-21T03:12:08;102070.66;;;8.83;100.00
69306;BME280;56427;51.580;4.656;2024-02-21T03:14:33;102071.59;;;8.79;100.00
69306;BME280;56427;51.580;4.656;2024-02-21T03:16:59;102065.56;;;8.79;100.00
69306;BME280;56427;51.580;4.656;2024-02-21T03:19:24;102069.06;;;8.76;100.00
69306;BME280;56427;51.580;4.656;2024-02-21T03:21:51;102059.56;;;8.77;100.00
69306;BME280;56427;51.580;4.656;2024-02-21T03:24:16;102053.59;;;8.75;100.00
69306;BME280;56427;51.580;4.656;2024-02-21T03:26:42;102052.78;;;8.71;100.00
69306;BME280;56427;51.580;4.656;2024-02-21T03:29:08;102052.84;;;8.70;100.00
69306;BME280;56427;51.580;4.656;2024-02-21T03:31:36;102052.91;;;8.65;100.00
69306;BME280;56427;51.580;4.656;2024-02-21T03:34:02;102043.50;;;8.62;100.00
69306;BME280;56427;51.580;4.656;2024-02-21T03:36:27;102040.09;;;8.59;100.00
69306;BME280;56427;51.580;4.656;2024-02-21T03:38:54;102039.31;;;8.57;100.00
69306;BME280;56427;51.580;4.656;2024-02-21T03:41:19;102039.34;;;8.54;100.00
69306;BME280;56427;51.580;4.656;2024-02-21T03:43:44;102033.38;;;8.52;100.00
69306;BME280;56427;51.580;4.656;2024-02-21T03:46:10;102033.38;;;8.52;100.00
69306;BME280;56427;51.580;4.656;2024-02-21T03:48:35;102033.28;;;8.56;100.00
69306;BME280;56427;51.580;4.656;2024-02-21T03:51:01;102030.56;;;8.62;100.00
69306;BME280;56427;51.580;4.656;2024-02-21T03:53:26;102034.91;;;8.60;100.00
69306;BME280;56427;51.580;4.656;2024-02-21T03:55:51;102033.13;;;8.64;100.00
69306;BME280;56427;51.580;4.656;2024-02-21T03:58:17;102032.25;;;8.63;100.00
69306;BME280;56427;51.580;4.656;2024-02-21T04:00:42;102035.75;;;8.62;100.00
69306;BME280;56427;51.580;4.656;2024-02-21T04:03:07;102044.28;;;8.66;100.00
69306;BME280;56427;51.580;4.656;2024-02-21T04:05:33;102043.34;;;8.70;100.00
69306;BME280;56427;51.580;4.656;2024-02-21T04:07:58;102032.31;;;8.62;100.00
69306;BME280;56427;51.580;4.656;2024-02-21T04:10:24;102027.09;;;8.63;100.00
69306;BME280;56427;51.580;4.656;2024-02-21T04:12:49;102036.69;;;8.58;100.00
69306;BME280;56427;51.580;4.656;2024-02-21T04:15:16;102026.41;;;8.54;100.00
69306;BME280;56427;51.580;4.656;2024-02-21T04:17:41;102033.28;;;8.56;100.00
69306;BME280;56427;51.580;4.656;2024-02-21T04:20:16;102032.47;;;8.53;100.00
69306;BME280;56427;51.580;4.656;2024-02-21T04:22:45;102025.69;;;8.47;100.00
69306;BME280;56427;51.580;4.656;2024-02-21T04:25:10;102026.41;;;8.55;100.00
69306;BME280;56427;51.580;4.656;2024-02-21T04:27:36;102025.66;;;8.50;100.00
69306;BME280;56427;51.580;4.656;2024-02-21T04:30:02;102021.47;;;8.43;100.00
69306;BME280;56427;51.580;4.656;2024-02-21T04:32:27;102027.50;;;8.42;100.00
69306;BME280;56427;51.580;4.656;2024-02-21T04:34:53;102027.53;;;8.41;100.00
69306;BME280;56427;51.580;4.656;2024-02-21T04:37:18;102022.38;;;8.41;100.00
69306;BME280;56427;51.580;4.656;2024-02-21T04:39:44;102016.28;;;8.45;100.00
69306;BME280;56427;51.580;4.656;2024-02-21T04:42:10;102013.66;;;8.46;100.00
69306;BME280;56427;51.580;4.656;2024-02-21T04:44:35;102002.53;;;8.41;100.00
69306;BME280;56427;51.580;4.656;2024-02-21T04:47:01;101997.50;;;8.36;100.00
69306;BME280;56427;51.580;4.656;2024-02-21T04:49:26;101999.22;;;8.36;100.00
69306;BME280;56427;51.580;4.656;2024-02-21T04:51:51;101992.31;;;8.33;100.00
69306;BME280;56427;51.580;4.656;2024-02-21T04:54:17;101978.56;;;8.33;100.00
69306;BME280;56427;51.580;4.656;2024-02-21T04:56:42;101987.13;;;8.35;100.00
69306;BME280;56427;51.580;4.656;2024-02-21T04:59:07;101997.59;;;8.29;100.00
69306;BME280;56427;51.580;4.656;2024-02-21T05:01:33;101983.81;;;8.28;100.00
69306;BME280;56427;51.580;4.656;2024-02-21T05:03:58;101985.59;;;8.26;100.00
69306;BME280;56427;51.580;4.656;2024-02-21T05:06:23;101969.16;;;8.29;100.00
69306;BME280;56427;51.580;4.656;2024-02-21T05:08:49;101957.19;;;8.23;100.00
69306;BME280;56427;51.580;4.656;2024-02-21T05:11:14;101964.88;;;8.28;100.00
69306;BME280;56427;51.580;4.656;2024-02-21T05:13:39;101956.34;;;8.23;100.00
69306;BME280;56427;51.580;4.656;2024-02-21T05:16:05;101952.91;;;8.24;100.00
69306;BME280;56427;51.580;4.656;2024-02-21T05:18:33;101955.41;;;8.27;100.00
69306;BME280;56427;51.580;4.656;2024-02-21T05:20:59;101948.47;;;8.30;100.00
69306;BME280;56427;51.580;4.656;2024-02-21T05:23:24;101938.16;;;8.27;100.00
69306;BME280;56427;51.580;4.656;2024-02-21T05:25:49;101949.31;;;8.31;100.00
69306;BME280;56427;51.580;4.656;2024-02-21T05:28:15;101935.50;;;8.32;100.00
69306;BME280;56427;51.580;4.656;2024-02-21T05:30:40;101931.25;;;8.28;100.00
69306;BME280;56427;51.580;4.656;2024-02-21T05:33:07;101920.88;;;8.31;100.00
69306;BME280;56427;51.580;4.656;2024-02-21T05:35:32;101924.31;;;8.31;100.00
69306;BME280;56427;51.580;4.656;2024-02-21T05:37:57;101922.50;;;8.35;100.00
69306;BME280;56427;51.580;4.656;2024-02-21T05:40:24;101920.78;;;8.34;100.00
69306;BME280;56427;51.580;4.656;2024-02-21T05:42:50;101920.78;;;8.35;100.00
69306;BME280;56427;51.580;4.656;2024-02-21T05:45:17;101913.06;;;8.32;100.00
69306;BME280;56427;51.580;4.656;2024-02-21T05:47:42;101911.34;;;8.33;100.00
69306;BME280;56427;51.580;4.656;2024-02-21T05:50:08;101914.72;;;8.35;100.00
69306;BME280;56427;51.580;4.656;2024-02-21T05:52:34;101898.41;;;8.36;100.00
69306;BME280;56427;51.580;4.656;2024-02-21T05:54:59;101900.94;;;8.37;100.00
69306;BME280;56427;51.580;4.656;2024-02-21T05:57:24;101898.31;;;8.39;100.00
69306;BME280;56427;51.580;4.656;2024-02-21T05:59:50;101888.06;;;8.36;100.00
69306;BME280;56427;51.580;4.656;2024-02-21T06:02:15;101878.53;;;8.38;100.00
69306;BME280;56427;51.580;4.656;2024-02-21T06:04:41;101887.16;;;8.35;100.00
69306;BME280;56427;51.580;4.656;2024-02-21T06:07:08;101886.41;;;8.30;100.00
69306;BME280;56427;51.580;4.656;2024-02-21T06:09:33;101867.44;;;8.31;100.00
69306;BME280;56427;51.580;4.656;2024-02-21T06:11:58;101881.16;;;8.36;100.00
69306;BME280;56427;51.580;4.656;2024-02-21T06:14:24;101882.72;;;8.42;100.00
69306;BME280;56427;51.580;4.656;2024-02-21T06:16:49;101876.75;;;8.40;100.00
69306;BME280;56427;51.580;4.656;2024-02-21T06:19:14;101875.03;;;8.39;100.00
69306;BME280;56427;51.580;4.656;2024-02-21T06:21:40;101881.13;;;8.35;100.00
69306;BME280;56427;51.580;4.656;2024-02-21T06:24:05;101881.00;;;8.43;100.00
69306;BME280;56427;51.580;4.656;2024-02-21T06:26:30;101886.31;;;8.36;100.00
69306;BME280;56427;51.580;4.656;2024-02-21T06:28:56;101883.72;;;8.36;100.00
69306;BME280;56427;51.580;4.656;2024-02-21T06:31:22;101891.53;;;8.32;100.00
69306;BME280;56427;51.580;4.656;2024-02-21T06:33:47;101892.34;;;8.35;100.00
69306;BME280;56427;51.580;4.656;2024-02-21T06:36:12;101892.28;;;8.38;100.00
69306;BME280;56427;51.580;4.656;2024-02-21T06:38:38;101885.47;;;8.36;100.00
69306;BME280;56427;51.580;4.656;2024-02-21T06:41:03;101881.06;;;8.40;100.00
69306;BME280;56427;51.580;4.656;2024-02-21T06:43:29;101881.00;;;8.43;100.00
69306;BME280;56427;51.580;4.656;2024-02-21T06:45:54;101881.03;;;8.41;100.00
69306;BME280;56427;51.580;4.656;2024-02-21T06:48:21;101877.72;;;8.36;100.00
69306;BME280;56427;51.580;4.656;2024-02-21T06:50:47;101869.97;;;8.33;100.00
69306;BME280;56427;51.580;4.656;2024-02-21T06:53:12;101866.59;;;8.31;100.00
69306;BME280;56427;51.580;4.656;2024-02-21T06:55:38;101851.78;;;8.39;100.00
69306;BME280;56427;51.580;4.656;2024-02-21T06:58:03;101858.00;;;8.29;100.00
69306;BME280;56427;51.580;4.656;2024-02-21T07:00:29;101852.00;;;8.27;100.00
69306;BME280;56427;51.580;4.656;2024-02-21T07:02:55;101843.31;;;8.31;100.00
69306;BME280;56427;51.580;4.656;2024-02-21T07:05:20;101846.03;;;8.23;100.00
69306;BME280;56427;51.580;4.656;2024-02-21T07:07:46;101839.16;;;8.24;100.00
69306;BME280;56427;51.580;4.656;2024-02-21T07:10:11;101849.66;;;8.18;100.00
69306;BME280;56427;51.580;4.656;2024-02-21T07:12:37;101845.28;;;8.20;100.00
69306;BME280;56427;51.580;4.656;2024-02-21T07:15:07;101852.09;;;8.22;100.00
69306;BME280;56427;51.580;4.656;2024-02-21T07:17:32;101847.91;;;8.18;100.00
69306;BME280;56427;51.580;4.656;2024-02-21T07:19:57;101841.78;;;8.22;100.00
69306;BME280;56427;51.580;4.656;2024-02-21T07:22:24;101828.13;;;8.17;100.00
69306;BME280;56427;51.580;4.656;2024-02-21T07:24:49;101822.88;;;8.20;100.00
69306;BME280;56427;51.580;4.656;2024-02-21T07:27:15;101836.72;;;8.16;100.00
69306;BME280;56427;51.580;4.656;2024-02-21T07:29:41;101825.66;;;8.11;100.00
69306;BME280;56427;51.580;4.656;2024-02-21T07:32:06;101811.72;;;8.17;100.00
69306;BME280;56427;51.580;4.656;2024-02-21T07:34:34;101799.81;;;8.11;100.00
69306;BME280;56427;51.580;4.656;2024-02-21T07:36:59;101808.28;;;8.18;100.00
69306;BME280;56427;51.580;4.656;2024-02-21T07:39:24;101793.63;;;8.18;100.00
69306;BME280;56427;51.580;4.656;2024-02-21T07:41:50;101799.69;;;8.17;100.00
69306;BME280;56427;51.580;4.656;2024-02-21T07:44:15;101793.53;;;8.21;100.00
69306;BME280;56427;51.580;4.656;2024-02-21T07:46:41;101801.16;;;8.27;100.00
69306;BME280;56427;51.580;4.656;2024-02-21T07:49:06;101797.72;;;8.27;100.00
69306;BME280;56427;51.580;4.656;2024-02-21T07:51:31;101785.00;;;8.19;100.00
69306;BME280;56427;51.580;4.656;2024-02-21T07:53:58;101788.38;;;8.21;100.00
69306;BME280;56427;51.580;4.656;2024-02-21T07:56:23;101781.47;;;8.22;100.00
69306;BME280;56427;51.580;4.656;2024-02-21T07:58:48;101784.00;;;8.25;100.00
69306;BME280;56427;51.580;4.656;2024-02-21T08:01:20;101774.56;;;8.24;100.00
69306;BME280;56427;51.580;4.656;2024-02-21T08:03:48;101771.84;;;8.28;100.00
69306;BME280;56427;51.580;4.656;2024-02-21T08:06:13;101762.50;;;8.23;100.00
69306;BME280;56427;51.580;4.656;2024-02-21T08:08:39;101764.16;;;8.25;100.00
69306;BME280;56427;51.580;4.656;2024-02-21T08:11:07;101760.59;;;8.29;100.00
69306;BME280;56427;51.580;4.656;2024-02-21T08:13:33;101764.06;;;8.30;100.00
69306;BME280;56427;51.580;4.656;2024-02-21T08:15:58;101757.22;;;8.27;100.00
69306;BME280;56427;51.580;4.656;2024-02-21T08:18:23;101742.69;;;8.22;100.00
69306;BME280;56427;51.580;4.656;2024-02-21T08:20:49;101745.97;;;8.30;100.00
69306;BME280;56427;51.580;4.656;2024-02-21T08:23:18;101733.91;;;8.29;100.00
69306;BME280;56427;51.580;4.656;2024-02-21T08:25:44;101731.09;;;8.40;100.00
69306;BME280;56427;51.580;4.656;2024-02-21T08:28:09;101734.59;;;8.38;100.00
69306;BME280;56427;51.580;4.656;2024-02-21T08:30:34;101720.59;;;8.46;100.00
69306;BME280;56427;51.580;4.656;2024-02-21T08:33:03;101729.22;;;8.46;100.00
69306;BME280;56427;51.580;4.656;2024-02-21T08:35:29;101719.59;;;8.51;100.00
69306;BME280;56427;51.580;4.656;2024-02-21T08:37:54;101716.09;;;8.54;100.00
69306;BME280;56427;51.580;4.656;2024-02-21T08:40:19;101716.06;;;8.55;100.00
69306;BME280;56427;51.580;4.656;2024-02-21T08:42:47;101710.00;;;8.56;100.00
69306;BME280;56427;51.580;4.656;2024-02-21T08:45:14;101716.91;;;8.56;100.00
69306;BME280;56427;51.580;4.656;2024-02-21T08:47:42;101705.53;;;8.63;100.00
69306;BME280;56427;51.580;4.656;2024-02-21T08:50:08;101703.66;;;8.68;100.00
69306;BME280;56427;51.580;4.656;2024-02-21T08:52:36;101693.97;;;8.76;100.00
69306;BME280;56427;51.580;4.656;2024-02-21T08:55:02;101695.81;;;8.71;100.00
69306;BME280;56427;51.580;4.656;2024-02-21T08:57:27;101698.34;;;8.73;100.00
69306;BME280;56427;51.580;4.656;2024-02-21T08:59:53;101689.53;;;8.80;100.00
69306;BME280;56427;51.580;4.656;2024-02-21T09:02:18;101687.59;;;8.88;100.00
69306;BME280;56427;51.580;4.656;2024-02-21T09:04:44;101673.72;;;8.90;100.00
69306;BME280;56427;51.580;4.656;2024-02-21T09:07:10;101675.22;;;8.99;100.00
69306;BME280;56427;51.580;4.656;2024-02-21T09:09:35;101669.44;;;8.89;100.00
69306;BME280;56427;51.580;4.656;2024-02-21T09:12:04;101665.66;;;9.01;100.00
69306;BME280;56427;51.580;4.656;2024-02-21T09:14:32;101665.66;;;9.01;100.00
69306;BME280;56427;51.580;4.656;2024-02-21T09:16:57;101653.44;;;9.06;100.00
69306;BME280;56427;51.580;4.656;2024-02-21T09:19:22;101638.91;;;9.02;100.00
69306;BME280;56427;51.580;4.656;2024-02-21T09:21:48;101634.44;;;9.07;100.00
69306;BME280;56427;51.580;4.656;2024-02-21T09:24:14;101618.97;;;9.06;100.00
69306;BME280;56427;51.580;4.656;2024-02-21T09:26:39;101612.72;;;9.13;100.00
69306;BME280;56427;51.580;4.656;2024-02-21T09:29:04;101602.16;;;9.19;100.00
69306;BME280;56427;51.580;4.656;2024-02-21T09:31:30;101602.13;;;9.21;100.00
69306;BME280;56427;51.580;4.656;2024-02-21T09:33:55;101595.50;;;9.10;100.00
69306;BME280;56427;51.580;4.656;2024-02-21T09:36:20;101589.94;;;9.24;100.00
69306;BME280;56427;51.580;4.656;2024-02-21T09:38:46;101585.44;;;9.31;100.00
69306;BME280;56427;51.580;4.656;2024-02-21T09:41:21;101571.63;;;9.30;100.00
69306;BME280;56427;51.580;4.656;2024-02-21T09:43:50;101564.41;;;9.40;100.00
69306;BME280;56427;51.580;4.656;2024-02-21T09:46:19;101559.81;;;9.48;100.00
69306;BME280;56427;51.580;4.656;2024-02-21T09:51:41;101558.31;;;9.41;100.00
69306;BME280;56427;51.580;4.656;2024-02-21T09:54:07;101549.56;;;9.45;100.00
69306;BME280;56427;51.580;4.656;2024-02-21T09:56:33;101546.19;;;9.43;100.00
69306;BME280;56427;51.580;4.656;2024-02-21T09:58:58;101539.50;;;9.36;100.00
69306;BME280;56427;51.580;4.656;2024-02-21T10:01:24;101533.72;;;9.54;100.00
69306;BME280;56427;51.580;4.656;2024-02-21T10:03:49;101509.97;;;9.41;100.00
69306;BME280;56427;51.580;4.656;2024-02-21T10:06:15;101513.97;;;9.52;100.00
69306;BME280;56427;51.580;4.656;2024-02-21T10:08:40;101499.47;;;9.46;100.00
69306;BME280;56427;51.580;4.656;2024-02-21T10:11:05;101478.06;;;9.41;100.00
69306;BME280;56427;51.580;4.656;2024-02-21T10:13:31;101465.66;;;9.51;100.00
69306;BME280;56427;51.580;4.656;2024-02-21T10:16:06;101433.97;;;9.67;100.00
69306;BME280;56427;51.580;4.656;2024-02-21T10:18:35;101426.88;;;9.49;100.00
69306;BME280;56427;51.580;4.656;2024-02-21T10:21:05;101470.56;;;9.58;100.00
69306;BME280;56427;51.580;4.656;2024-02-21T10:26:07;101477.03;;;9.71;100.00
69306;BME280;56427;51.580;4.656;2024-02-21T10:28:32;101484.66;;;9.76;100.00
69306;BME280;56427;51.580;4.656;2024-02-21T10:30:58;101481.47;;;9.68;100.00
69306;BME280;56427;51.580;4.656;2024-02-21T10:33:23;101483.97;;;9.71;100.00
69306;BME280;56427;51.580;4.656;2024-02-21T10:35:50;101485.13;;;9.62;100.00
69306;BME280;56427;51.580;4.656;2024-02-21T10:38:16;101475.59;;;9.63;100.00
69306;BME280;56427;51.580;4.656;2024-02-21T10:40:42;101479.25;;;9.57;100.00
69306;BME280;56427;51.580;4.656;2024-02-21T10:43:12;101477.28;;;9.64;100.00
69306;BME280;56427;51.580;4.656;2024-02-21T10:45:37;101487.75;;;9.61;100.00
69306;BME280;56427;51.580;4.656;2024-02-21T10:48:13;101480.59;;;9.69;100.00
69306;BME280;56427;51.580;4.656;2024-02-21T10:56:22;101445.47;;;9.60;100.00
69306;BME280;56427;51.580;4.656;2024-02-21T10:58:49;101445.44;;;9.85;100.00
69306;BME280;56427;51.580;4.656;2024-02-21T11:01:16;101448.13;;;10.07;100.00
69306;BME280;56427;51.580;4.656;2024-02-21T11:03:44;101432.06;;;10.21;100.00
69306;BME280;56427;51.580;4.656;2024-02-21T11:06:13;101451.88;;;10.23;100.00
69306;BME280;56427;51.580;4.656;2024-02-21T11:08:40;101444.84;;;10.02;100.00
69306;BME280;56427;51.580;4.656;2024-02-21T11:11:05;101436.50;;;10.17;100.00
69306;BME280;56427;51.580;4.656;2024-02-21T11:13:32;101427.84;;;10.18;100.00
69306;BME280;56427;51.580;4.656;2024-02-21T11:16:11;101403.84;;;10.13;100.00
69306;BME280;56427;51.580;4.656;2024-02-21T11:18:39;101395.63;;;10.25;100.00
69306;BME280;56427;51.580;4.656;2024-02-21T11:21:05;101384.97;;;10.33;100.00
69306;BME280;56427;51.580;4.656;2024-02-21T11:23:31;101364.31;;;10.30;100.00
69306;BME280;56427;51.580;4.656;2024-02-21T11:26:07;101364.28;;;10.32;99.71
69306;BME280;56427;51.580;4.656;2024-02-21T11:28:32;101367.78;;;10.52;98.45
69306;BME280;56427;51.580;4.656;2024-02-21T11:31:07;101367.31;;;10.65;98.40
69306;BME280;56427;51.580;4.656;2024-02-21T11:33:34;101363.72;;;10.67;98.19
69306;BME280;56427;51.580;4.656;2024-02-21T11:35:59;101348.00;;;10.50;98.75
69306;BME280;56427;51.580;4.656;2024-02-21T11:38:25;101337.38;;;10.34;98.43
69306;BME280;56427;51.580;4.656;2024-02-21T11:40:50;101339.19;;;10.32;98.68
69306;BME280;56427;51.580;4.656;2024-02-21T11:43:15;101342.63;;;10.54;99.06
69306;BME280;56427;51.580;4.656;2024-02-21T11:45:41;101327.38;;;10.47;99.33
69306;BME280;56427;51.580;4.656;2024-02-21T11:48:07;101321.81;;;10.34;99.22
69306;BME280;56427;51.580;4.656;2024-02-21T11:50:34;101322.50;;;10.39;99.18
69306;BME280;56427;51.580;4.656;2024-02-21T11:53:01;101308.47;;;10.21;99.80
69306;BME280;56427;51.580;4.656;2024-02-21T11:55:26;101310.66;;;10.32;100.00
69306;BME280;56427;51.580;4.656;2024-02-21T11:57:51;101296.47;;;10.41;100.00
69306;BME280;56427;51.580;4.656;2024-02-21T12:00:18;101290.88;;;10.51;99.61
69306;BME280;56427;51.580;4.656;2024-02-21T12:02:47;101292.22;;;10.40;99.92
69306;BME280;56427;51.580;4.656;2024-02-21T12:05:12;101294.38;;;10.29;100.00
69306;BME280;56427;51.580;4.656;2024-02-21T12:07:38;101282.47;;;10.24;100.00
69306;BME280;56427;51.580;4.656;2024-02-21T12:10:10;101278.94;;;10.25;100.00
69306;BME280;56427;51.580;4.656;2024-02-21T12:12:36;101273.41;;;10.11;100.00
69306;BME280;56427;51.580;4.656;2024-02-21T12:15:03;101276.56;;;10.19;100.00
69306;BME280;56427;51.580;4.656;2024-02-21T12:17:30;101241.84;;;10.23;100.00
69306;BME280;56427;51.580;4.656;2024-02-21T12:19:56;101225.75;;;10.15;100.00
69306;BME280;56427;51.580;4.656;2024-02-21T12:22:22;101212.25;;;10.29;100.00
69306;BME280;56427;51.580;4.656;2024-02-21T12:24:47;101203.31;;;10.14;99.87
69306;BME280;56427;51.580;4.656;2024-02-21T12:27:13;101195.91;;;10.27;100.00
69306;BME280;56427;51.580;4.656;2024-02-21T12:29:39;101188.34;;;10.21;100.00
69306;BME280;56427;51.580;4.656;2024-02-21T12:32:04;101201.66;;;10.12;100.00
69306;BME280;56427;51.580;4.656;2024-02-21T12:34:30;101177.31;;;10.16;100.00
69306;BME280;56427;51.580;4.656;2024-02-21T12:36:58;101189.00;;;10.06;100.00
69306;BME280;56427;51.580;4.656;2024-02-21T12:39:24;101179.63;;;10.02;100.00
69306;BME280;56427;51.580;4.656;2024-02-21T12:41:49;101178.13;;;9.96;100.00
69306;BME280;56427;51.580;4.656;2024-02-21T12:44:15;101179.63;;;10.02;100.00
69306;BME280;56427;51.580;4.656;2024-02-21T12:46:42;101179.94;;;9.94;100.00
69306;BME280;56427;51.580;4.656;2024-02-21T12:49:07;101160.91;;;9.95;100.00
69306;BME280;56427;51.580;4.656;2024-02-21T12:51:34;101160.25;;;9.90;100.00
69306;BME280;56427;51.580;4.656;2024-02-21T12:53:59;101168.84;;;10.12;100.00
69306;BME280;56427;51.580;4.656;2024-02-21T12:56:25;101165.38;;;10.12;100.00
69306;BME280;56427;51.580;4.656;2024-02-21T12:58:55;101160.34;;;10.09;100.00